Time;durP1;ratioP1;P1;durP2;ratioP2;P2;SDS_P1;SDS_P2;PMS_P1;PMS_P2;Temp;Humidity;BMP_temperature;BMP_pressure;BME280_temperature;BME280_humidity;BME280_pressure;Samples;Min_cycle;Max_cycle;Signal;HPM_P1;HPM_P2
2023/03/17 00:00:50;;;;;;;8.80;7.23;;;9.30;51.80;;;;;;5070422;28;20468;-85
2023/03/17 00:03:21;;;;;;;10.40;7.63;;;9.30;52.10;;;;;;5032307;28;20470;-87
2023/03/17 00:05:49;;;;;;;12.03;7.63;;;9.30;51.90;;;;;;5054845;28;20516;-87
2023/03/17 00:08:21;;;;;;;13.77;7.80;;;9.40;51.90;;;;;;5081783;28;20852;-88
2023/03/17 00:10:48;;;;;;;13.87;7.50;;;9.40;52.40;;;;;;5047132;28;20440;-86
2023/03/17 00:13:16;;;;;;;10.37;7.17;;;9.40;51.80;;;;;;5066047;28;20456;-85
2023/03/17 00:15:44;;;;;;;11.50;7.23;;;9.40;51.60;;;;;;5052739;28;20535;-87
2023/03/17 00:18:15;;;;;;;6.67;6.07;;;9.30;51.90;;;;;;5035356;28;20551;-86
2023/03/17 00:20:44;;;;;;;10.63;6.57;;;9.40;52.00;;;;;;5053626;28;20532;-86
2023/03/17 00:23:15;;;;;;;11.47;7.13;;;9.40;52.10;;;;;;5045381;28;20499;-87
2023/03/17 00:25:44;;;;;;;11.10;7.50;;;9.30;51.90;;;;;;5037767;28;20559;-86
2023/03/17 00:28:18;;;;;;;11.20;6.50;;;9.30;52.00;;;;;;5027532;28;20707;-87
2023/03/17 00:30:45;;;;;;;13.43;6.83;;;9.30;52.00;;;;;;5032447;28;20541;-87
2023/03/17 00:33:14;;;;;;;10.47;7.00;;;9.20;51.90;;;;;;5066153;28;20436;-86
2023/03/17 00:35:45;;;;;;;10.40;6.40;;;9.20;52.40;;;;;;5052265;28;20496;-84
2023/03/17 00:38:15;;;;;;;7.40;6.50;;;9.10;52.70;;;;;;5031546;28;20448;-88
2023/03/17 00:40:43;;;;;;;10.83;6.50;;;9.10;52.60;;;;;;5028365;28;20466;-85
2023/03/17 00:43:11;;;;;;;11.57;7.23;;;9.10;52.50;;;;;;5053745;28;22056;-84
2023/03/17 00:45:39;;;;;;;14.83;7.40;;;9.00;52.70;;;;;;5061322;28;20540;-87
2023/03/17 00:48:13;;;;;;;9.93;7.10;;;9.00;52.50;;;;;;5044317;28;20981;-85
2023/03/17 00:50:46;;;;;;;13.10;7.57;;;9.00;52.60;;;;;;5036324;28;20478;-86
2023/03/17 00:53:15;;;;;;;12.90;6.60;;;9.00;52.40;;;;;;5045346;28;20501;-85
2023/03/17 00:55:44;;;;;;;7.87;6.80;;;9.00;52.20;;;;;;5052144;28;20510;-87
2023/03/17 00:58:14;;;;;;;9.53;6.83;;;9.00;52.00;;;;;;5048578;28;20532;-85
2023/03/17 01:00:41;;;;;;;16.20;8.47;;;8.90;52.40;;;;;;5030743;28;20500;-86
2023/03/17 01:03:12;;;;;;;10.70;7.60;;;8.90;52.50;;;;;;5042071;28;20526;-86
2023/03/17 01:05:40;;;;;;;11.17;7.63;;;8.90;52.90;;;;;;5052119;28;20468;-86
2023/03/17 01:08:10;;;;;;;11.13;6.27;;;9.00;52.90;;;;;;5041289;28;20444;-87
2023/03/17 01:10:41;;;;;;;11.20;7.03;;;9.10;53.10;;;;;;5045029;28;20492;-85
2023/03/17 01:13:12;;;;;;;11.40;7.37;;;9.00;53.10;;;;;;5033928;28;20887;-86
2023/03/17 01:15:44;;;;;;;10.40;6.20;;;9.00;52.90;;;;;;5062862;28;20456;-87
2023/03/17 01:18:13;;;;;;;10.47;7.30;;;9.00;52.90;;;;;;5058718;28;20444;-86
2023/03/17 01:20:41;;;;;;;12.20;7.60;;;9.00;52.90;;;;;;5045528;28;20441;-86
2023/03/17 01:23:11;;;;;;;13.13;6.67;;;9.00;53.00;;;;;;5038351;28;20450;-85
2023/03/17 01:25:40;;;;;;;14.60;7.20;;;9.00;52.90;;;;;;5050902;28;20472;-87
2023/03/17 01:28:07;;;;;;;10.83;6.23;;;9.00;52.70;;;;;;5050654;28;20456;-83
2023/03/17 01:30:37;;;;;;;10.60;6.53;;;9.10;52.80;;;;;;5030602;28;20501;-86
2023/03/17 01:33:05;;;;;;;10.50;7.93;;;9.10;52.90;;;;;;5067669;28;20472;-86
2023/03/17 01:35:33;;;;;;;14.90;7.97;;;9.10;52.90;;;;;;5063064;28;20490;-86
2023/03/17 01:38:01;;;;;;;13.17;7.30;;;9.00;53.10;;;;;;5050208;28;20436;-87
2023/03/17 01:40:33;;;;;;;10.17;8.07;;;8.90;53.30;;;;;;5045655;28;20499;-87
2023/03/17 01:43:13;;;;;;;10.73;7.40;;;9.00;53.10;;;;;;5061885;28;21267;-88
2023/03/17 01:46:21;;;;;;;16.93;7.00;;;8.90;53.20;;;;;;5062538;28;20460;-87
2023/03/17 01:49:03;;;;;;;9.67;6.30;;;8.80;53.40;;;;;;4950101;28;20996;-86
2023/03/17 01:51:33;;;;;;;10.53;6.70;;;8.80;53.40;;;;;;5042123;28;20437;-86
2023/03/17 01:54:03;;;;;;;11.73;7.80;;;8.80;53.70;;;;;;5033919;28;20472;-87
2023/03/17 01:56:32;;;;;;;9.13;6.97;;;8.70;53.70;;;;;;5045266;28;20457;-85
2023/03/17 01:59:05;;;;;;;10.93;7.17;;;8.70;53.80;;;;;;5033306;28;20520;-83
2023/03/17 02:01:37;;;;;;;11.00;6.80;;;8.80;53.50;;;;;;5045923;28;20659;-85
2023/03/17 02:04:05;;;;;;;8.40;6.30;;;8.90;53.50;;;;;;5032741;28;20457;-86
2023/03/17 02:06:33;;;;;;;9.33;6.53;;;8.80;53.40;;;;;;5034998;28;20534;-86
2023/03/17 02:09:01;;;;;;;9.43;5.93;;;8.80;53.50;;;;;;5044805;28;20445;-86
2023/03/17 02:11:28;;;;;;;11.60;6.43;;;8.80;53.00;;;;;;5029261;28;20448;-85
2023/03/17 02:13:57;;;;;;;9.60;6.77;;;8.80;53.20;;;;;;5050154;28;21017;-88
2023/03/17 02:16:24;;;;;;;9.40;7.30;;;8.80;54.10;;;;;;5050870;28;20516;-87
2023/03/17 02:18:51;;;;;;;9.83;7.03;;;8.80;53.60;;;;;;5035663;28;20447;-84
2023/03/17 02:21:38;;;;;;;10.70;6.77;;;8.80;53.60;;;;;;5051029;28;20474;-87
2023/03/17 02:24:14;;;;;;;10.23;6.67;;;8.70;53.30;;;;;;5044337;28;20579;-85
2023/03/17 02:26:43;;;;;;;6.80;5.83;;;8.60;53.70;;;;;;5057078;28;20486;-86
2023/03/17 02:29:10;;;;;;;10.67;6.80;;;8.50;53.90;;;;;;5051860;28;20449;-86
2023/03/17 02:31:41;;;;;;;8.83;6.17;;;8.50;54.10;;;;;;5031439;28;20494;-86
2023/03/17 02:34:08;;;;;;;9.33;7.10;;;8.60;54.00;;;;;;5037418;28;20555;-88
2023/03/17 02:36:36;;;;;;;10.43;6.60;;;8.50;54.50;;;;;;5049678;28;20482;-86
2023/03/17 02:39:04;;;;;;;9.90;6.50;;;8.50;54.40;;;;;;5052546;28;21004;-88
2023/03/17 02:41:31;;;;;;;12.97;6.83;;;8.60;54.60;;;;;;5062907;28;20469;-85
2023/03/17 02:43:59;;;;;;;11.27;7.10;;;8.60;54.20;;;;;;5046824;28;20464;-86
2023/03/17 02:46:26;;;;;;;13.23;6.93;;;8.60;54.20;;;;;;5034350;28;20498;-87
2023/03/17 02:48:55;;;;;;;10.67;6.50;;;8.80;54.10;;;;;;5052209;28;20490;-87
2023/03/17 02:51:22;;;;;;;10.57;7.20;;;8.70;53.60;;;;;;5032338;28;20436;-86
2023/03/17 02:53:50;;;;;;;8.80;6.83;;;8.80;53.70;;;;;;5049572;28;20945;-85
2023/03/17 02:56:17;;;;;;;9.43;7.10;;;8.80;53.60;;;;;;5047809;28;20532;-86
2023/03/17 02:58:45;;;;;;;8.90;6.50;;;8.80;53.80;;;;;;5030264;28;20682;-88
2023/03/17 03:01:12;;;;;;;9.63;7.00;;;8.70;53.90;;;;;;5045048;28;20891;-84
2023/03/17 03:03:39;;;;;;;9.13;7.17;;;8.70;53.90;;;;;;5047295;28;20440;-87
2023/03/17 03:06:06;;;;;;;13.30;7.37;;;8.80;53.70;;;;;;5053753;28;20433;-85
2023/03/17 03:08:33;;;;;;;8.07;5.80;;;8.80;53.80;;;;;;5060195;28;20976;-87
2023/03/17 03:11:03;;;;;;;9.03;6.60;;;8.70;53.50;;;;;;5069357;28;20559;-86
2023/03/17 03:13:31;;;;;;;9.37;5.93;;;8.70;53.40;;;;;;5047640;28;20457;-85
2023/03/17 03:15:58;;;;;;;7.60;5.80;;;8.70;53.30;;;;;;5036511;28;20448;-86
2023/03/17 03:18:25;;;;;;;9.67;6.70;;;8.60;53.50;;;;;;5055250;28;20451;-84
2023/03/17 03:20:52;;;;;;;11.30;7.13;;;8.60;53.30;;;;;;5054675;28;20445;-86
2023/03/17 03:23:19;;;;;;;7.63;5.93;;;8.60;53.10;;;;;;5046174;28;20463;-87
2023/03/17 03:25:46;;;;;;;7.50;5.60;;;8.40;53.10;;;;;;5055909;28;21001;-87
2023/03/17 03:28:14;;;;;;;8.57;6.37;;;8.40;53.20;;;;;;5053304;28;20448;-86
2023/03/17 03:30:43;;;;;;;8.07;5.67;;;8.40;53.30;;;;;;5045777;28;20477;-86
2023/03/17 03:33:12;;;;;;;8.37;6.20;;;8.40;53.70;;;;;;5046175;28;20436;-87
2023/03/17 03:35:40;;;;;;;8.57;5.87;;;8.40;54.40;;;;;;5039442;28;20467;-86
2023/03/17 03:38:07;;;;;;;11.50;7.00;;;8.40;54.40;;;;;;5035627;28;20958;-86
2023/03/17 03:40:35;;;;;;;10.90;7.07;;;8.40;54.40;;;;;;5047002;28;20462;-85
2023/03/17 03:43:02;;;;;;;12.80;7.20;;;8.30;54.50;;;;;;5043849;28;20468;-86
2023/03/17 03:45:31;;;;;;;13.07;7.90;;;8.40;54.30;;;;;;5053217;28;20539;-85
2023/03/17 03:47:58;;;;;;;10.30;7.00;;;8.40;54.00;;;;;;5030021;28;20456;-85
2023/03/17 03:50:25;;;;;;;11.07;6.80;;;8.40;54.00;;;;;;5054191;28;20447;-86
2023/03/17 03:52:52;;;;;;;9.77;6.23;;;8.50;53.80;;;;;;5049181;28;20456;-86
2023/03/17 03:55:19;;;;;;;9.80;6.13;;;8.40;53.10;;;;;;5034932;28;20481;-88
2023/03/17 03:57:46;;;;;;;15.40;6.90;;;8.30;52.90;;;;;;5047442;28;21011;-85
2023/03/17 04:00:15;;;;;;;11.00;6.70;;;8.30;53.50;;;;;;5051935;28;20456;-87
2023/03/17 04:02:43;;;;;;;8.90;5.50;;;8.30;53.70;;;;;;5069169;28;20530;-86
2023/03/17 04:05:11;;;;;;;7.80;6.23;;;8.40;53.50;;;;;;5053128;28;21002;-85
2023/03/17 04:07:38;;;;;;;8.73;5.63;;;8.30;53.30;;;;;;5033942;28;20953;-86
2023/03/17 04:10:06;;;;;;;12.20;6.97;;;8.20;52.50;;;;;;5039003;28;20505;-87
2023/03/17 04:12:33;;;;;;;8.77;6.50;;;8.00;52.90;;;;;;5051756;28;20448;-86
2023/03/17 04:15:01;;;;;;;7.33;6.10;;;7.90;53.50;;;;;;5025167;28;21497;-85
2023/03/17 04:17:28;;;;;;;14.47;6.57;;;8.00;54.20;;;;;;5069800;28;21044;-87
2023/03/17 04:19:56;;;;;;;12.23;7.00;;;8.00;54.00;;;;;;5039183;28;20452;-86
2023/03/17 04:22:23;;;;;;;12.00;6.87;;;8.00;53.50;;;;;;5054781;28;20460;-86
2023/03/17 04:24:50;;;;;;;12.27;8.30;;;8.00;53.70;;;;;;5038995;28;20468;-87
2023/03/17 04:27:17;;;;;;;13.10;8.93;;;8.00;53.40;;;;;;5036945;28;20507;-88
2023/03/17 04:29:44;;;;;;;16.50;9.10;;;8.10;53.50;;;;;;5072821;28;20462;-89
2023/03/17 04:32:13;;;;;;;10.23;7.20;;;8.00;53.30;;;;;;5058846;28;20429;-88
2023/03/17 04:34:41;;;;;;;8.00;6.73;;;8.00;52.90;;;;;;5029050;28;20544;-88
2023/03/17 04:37:11;;;;;;;9.40;6.87;;;7.80;52.80;;;;;;5047183;28;20440;-86
2023/03/17 04:39:38;;;;;;;9.40;5.87;;;7.60;53.50;;;;;;5036178;28;20969;-87
2023/03/17 04:42:05;;;;;;;11.47;5.83;;;7.60;53.70;;;;;;5047064;28;20460;-90
2023/03/17 04:44:33;;;;;;;8.07;6.07;;;7.60;53.70;;;;;;5047693;28;21090;-88
2023/03/17 04:46:59;;;;;;;10.67;6.83;;;7.70;53.90;;;;;;5054382;28;20458;-86
2023/03/17 04:49:26;;;;;;;10.33;7.77;;;7.70;53.70;;;;;;5045060;28;20444;-88
2023/03/17 04:51:53;;;;;;;9.97;7.33;;;7.70;53.50;;;;;;5048124;28;20440;-88
2023/03/17 04:54:22;;;;;;;7.40;6.63;;;7.80;53.50;;;;;;5050552;28;20497;-86
2023/03/17 04:56:49;;;;;;;11.73;7.70;;;7.80;53.30;;;;;;5028611;28;20539;-90
2023/03/17 04:59:16;;;;;;;19.23;9.67;;;7.80;53.10;;;;;;5050575;28;20527;-89
2023/03/17 05:01:43;;;;;;;14.97;10.10;;;7.70;53.50;;;;;;5064544;28;20522;-89
2023/03/17 05:04:11;;;;;;;12.60;7.90;;;7.70;53.50;;;;;;5047252;28;20531;-88
2023/03/17 05:06:38;;;;;;;10.97;7.23;;;7.80;53.40;;;;;;5045578;28;20470;-88
2023/03/17 05:09:04;;;;;;;7.00;5.60;;;7.70;53.10;;;;;;5049372;28;20837;-87
2023/03/17 05:11:33;;;;;;;12.60;6.97;;;7.60;52.70;;;;;;5039704;28;20444;-88
2023/03/17 05:14:00;;;;;;;10.83;7.30;;;7.40;53.00;;;;;;5032316;28;20475;-88
2023/03/17 05:16:27;;;;;;;9.90;7.17;;;7.30;53.20;;;;;;5062780;28;20472;-86
2023/03/17 05:18:54;;;;;;;8.87;5.60;;;7.30;53.70;;;;;;5050169;28;20448;-88
2023/03/17 05:21:21;;;;;;;7.73;5.93;;;7.40;54.10;;;;;;5052186;28;20439;-86
2023/03/17 05:23:49;;;;;;;8.80;6.33;;;7.40;54.20;;;;;;5034734;28;20491;-88
2023/03/17 05:26:16;;;;;;;12.07;6.80;;;7.50;53.80;;;;;;5052637;28;20454;-87
2023/03/17 05:28:44;;;;;;;7.83;6.50;;;7.50;53.60;;;;;;5044047;28;20927;-87
2023/03/17 05:31:11;;;;;;;12.93;6.60;;;7.40;53.10;;;;;;5066801;28;20843;-87
2023/03/17 05:33:38;;;;;;;8.27;5.87;;;7.40;53.40;;;;;;5021601;28;20448;-87
2023/03/17 05:36:06;;;;;;;7.43;5.57;;;7.30;53.70;;;;;;5059249;28;20456;-87
2023/03/17 05:38:33;;;;;;;8.70;6.60;;;7.30;53.60;;;;;;5026190;28;21051;-88
2023/03/17 05:41:00;;;;;;;7.23;5.67;;;7.40;53.60;;;;;;5040712;28;21299;-86
2023/03/17 05:43:27;;;;;;;7.60;6.30;;;7.40;53.40;;;;;;5026774;28;20545;-86
2023/03/17 05:45:56;;;;;;;9.40;6.73;;;7.50;53.30;;;;;;5051148;28;20456;-87
2023/03/17 05:48:23;;;;;;;8.53;6.40;;;7.50;53.30;;;;;;5046051;28;20467;-86
2023/03/17 05:50:50;;;;;;;9.50;5.80;;;7.50;53.20;;;;;;5035028;28;20445;-88
2023/03/17 05:53:17;;;;;;;8.87;6.07;;;7.50;53.20;;;;;;5039550;28;20715;-86
2023/03/17 05:55:44;;;;;;;10.07;5.83;;;7.60;53.30;;;;;;5063147;28;21001;-90
2023/03/17 05:58:12;;;;;;;7.80;5.97;;;7.60;53.70;;;;;;5066095;28;20456;-86
2023/03/17 06:00:39;;;;;;;11.03;6.30;;;7.50;54.10;;;;;;5029319;28;20463;-87
2023/03/17 06:03:08;;;;;;;7.80;6.03;;;7.50;53.90;;;;;;5052643;28;20463;-85
2023/03/17 06:05:35;;;;;;;16.00;7.10;;;7.50;53.70;;;;;;5070782;28;20471;-86
2023/03/17 06:08:03;;;;;;;10.43;6.60;;;7.60;53.70;;;;;;5050172;28;20459;-90
2023/03/17 06:10:31;;;;;;;9.33;7.63;;;7.60;53.50;;;;;;5058716;28;20525;-86
2023/03/17 06:12:58;;;;;;;9.93;6.80;;;7.60;53.30;;;;;;5038207;28;20456;-86
2023/03/17 06:15:25;;;;;;;7.30;6.40;;;7.50;53.60;;;;;;5044789;28;20509;-86
2023/03/17 06:17:52;;;;;;;11.30;5.57;;;7.40;54.20;;;;;;5035905;28;20488;-88
2023/03/17 06:20:21;;;;;;;9.50;6.93;;;7.40;53.70;;;;;;5048243;28;20447;-88
2023/03/17 06:22:48;;;;;;;6.40;5.80;;;7.40;53.30;;;;;;5037543;28;20468;-88
2023/03/17 06:25:15;;;;;;;8.20;5.93;;;7.40;53.70;;;;;;5036976;28;21065;-86
2023/03/17 06:27:42;;;;;;;13.10;7.40;;;7.40;54.00;;;;;;5049337;28;20456;-87
2023/03/17 06:30:10;;;;;;;10.60;7.47;;;7.40;53.70;;;;;;5053683;28;20459;-86
2023/03/17 06:32:37;;;;;;;14.67;8.83;;;7.40;53.50;;;;;;5042193;28;20433;-87
2023/03/17 06:35:06;;;;;;;18.00;11.00;;;7.30;53.80;;;;;;5036352;28;20459;-85
2023/03/17 06:37:35;;;;;;;13.57;8.10;;;7.30;54.20;;;;;;5049872;28;20448;-87
2023/03/17 06:40:04;;;;;;;11.90;7.90;;;7.30;54.50;;;;;;5076272;28;20952;-86
2023/03/17 06:42:31;;;;;;;11.37;7.70;;;7.40;54.50;;;;;;5062215;28;20472;-86
2023/03/17 06:44:58;;;;;;;14.17;9.67;;;7.40;54.20;;;;;;5077950;28;20499;-86
2023/03/17 06:47:25;;;;;;;11.50;8.50;;;7.50;54.10;;;;;;5065195;28;20462;-86
2023/03/17 06:49:52;;;;;;;11.93;7.87;;;7.50;53.90;;;;;;5062127;28;20498;-86
2023/03/17 06:52:19;;;;;;;13.37;7.50;;;7.50;53.80;;;;;;5065538;28;20479;-86
2023/03/17 06:54:47;;;;;;;10.80;7.10;;;7.60;53.80;;;;;;5052516;28;20490;-86
2023/03/17 06:57:14;;;;;;;10.03;7.20;;;7.70;53.70;;;;;;5061396;28;20845;-86
2023/03/17 06:59:41;;;;;;;14.73;7.53;;;7.70;53.80;;;;;;5059661;28;20940;-85
2023/03/17 07:02:10;;;;;;;12.73;8.23;;;7.70;53.80;;;;;;5046361;28;20453;-88
2023/03/17 07:04:37;;;;;;;11.57;8.07;;;7.70;53.70;;;;;;5047441;28;20472;-87
2023/03/17 07:07:05;;;;;;;8.97;6.87;;;7.70;53.90;;;;;;5084063;28;20552;-90
2023/03/17 07:09:33;;;;;;;12.80;6.70;;;7.70;54.00;;;;;;5059193;28;20437;-89
2023/03/17 07:12:03;;;;;;;17.63;8.17;;;7.80;54.10;;;;;;5053815;28;20452;-89
2023/03/17 07:14:34;;;;;;;12.30;7.30;;;7.70;54.40;;;;;;5037691;28;20729;-86
2023/03/17 07:17:02;;;;;;;13.70;9.70;;;7.80;54.40;;;;;;5054909;28;20466;-86
2023/03/17 07:19:30;;;;;;;13.37;8.97;;;7.80;54.30;;;;;;5042440;28;20435;-87
2023/03/17 07:21:57;;;;;;;13.17;8.73;;;7.80;54.10;;;;;;5068508;28;20457;-86
2023/03/17 07:24:25;;;;;;;12.00;8.33;;;7.80;54.10;;;;;;5082398;28;20484;-88
2023/03/17 07:26:52;;;;;;;10.63;8.00;;;7.80;54.10;;;;;;5064182;28;20437;-88
2023/03/17 07:29:21;;;;;;;13.20;9.23;;;7.80;53.80;;;;;;5083500;28;20566;-87
2023/03/17 07:31:48;;;;;;;10.97;8.97;;;7.80;53.90;;;;;;5052978;28;20916;-88
2023/03/17 07:34:16;;;;;;;13.77;9.97;;;7.70;54.10;;;;;;5085395;28;20483;-88
2023/03/17 07:36:43;;;;;;;11.40;8.00;;;7.70;54.00;;;;;;5039524;28;20448;-88
2023/03/17 07:39:10;;;;;;;16.43;8.30;;;7.60;54.10;;;;;;5073588;28;20490;-87
2023/03/17 07:41:37;;;;;;;8.87;7.17;;;7.60;54.70;;;;;;5048565;28;20486;-89
2023/03/17 07:44:07;;;;;;;15.17;7.60;;;7.80;54.70;;;;;;5076610;28;20478;-87
2023/03/17 07:46:35;;;;;;;10.47;7.40;;;7.80;54.50;;;;;;5028198;28;21231;-89
2023/03/17 07:49:02;;;;;;;8.57;6.40;;;7.60;55.10;;;;;;5031379;28;20444;-88
2023/03/17 07:51:29;;;;;;;9.37;7.50;;;7.70;54.60;;;;;;5035275;28;20462;-89
2023/03/17 07:54:02;;;;;;;10.17;6.93;;;7.70;54.70;;;;;;5054967;28;20472;-89
2023/03/17 07:56:30;;;;;;;10.53;7.00;;;7.80;54.80;;;;;;5023412;28;20458;-89
2023/03/17 07:58:57;;;;;;;8.13;6.93;;;8.00;54.70;;;;;;5043883;28;20465;-89
2023/03/17 08:01:25;;;;;;;11.80;7.87;;;8.10;54.60;;;;;;5072266;28;20460;-88
2023/03/17 08:03:55;;;;;;;8.00;6.77;;;8.10;54.50;;;;;;5047834;28;20491;-89
2023/03/17 08:06:24;;;;;;;10.17;7.80;;;8.20;54.40;;;;;;5041877;28;20477;-90
2023/03/17 08:08:51;;;;;;;9.57;6.70;;;8.20;54.20;;;;;;5043251;28;20456;-90
2023/03/17 08:11:18;;;;;;;10.30;6.53;;;8.30;54.60;;;;;;5039485;28;20448;-89
2023/03/17 08:13:46;;;;;;;12.10;7.57;;;8.40;54.40;;;;;;5029247;28;20500;-90
2023/03/17 08:16:13;;;;;;;22.27;7.80;;;8.50;54.10;;;;;;5027751;28;20829;-89
2023/03/17 08:18:40;;;;;;;10.03;7.30;;;8.50;54.00;;;;;;5023038;28;20444;-90
2023/03/17 08:21:09;;;;;;;15.67;8.63;;;8.60;54.10;;;;;;5043399;28;20459;-88
2023/03/17 08:23:36;;;;;;;15.97;10.27;;;8.70;54.00;;;;;;5037122;28;21098;-87
2023/03/17 08:26:04;;;;;;;10.37;6.60;;;8.80;53.80;;;;;;5025499;28;20448;-89
2023/03/17 08:28:31;;;;;;;13.07;6.07;;;8.90;53.50;;;;;;5043381;28;20436;-89
2023/03/17 08:31:08;;;;;;;7.87;6.10;;;8.80;53.90;;;;;;5042114;28;20561;-88
2023/03/17 08:33:35;;;;;;;8.27;5.80;;;8.80;53.70;;;;;;5043153;28;20461;-88
2023/03/17 08:36:05;;;;;;;8.93;5.10;;;8.70;53.90;;;;;;5048241;28;20452;-90
2023/03/17 08:38:34;;;;;;;6.07;4.73;;;8.80;53.60;;;;;;5050480;28;20475;-89
2023/03/17 08:41:02;;;;;;;11.57;5.27;;;9.00;52.50;;;;;;5060966;28;20441;-88
2023/03/17 08:43:29;;;;;;;13.93;7.47;;;9.00;52.50;;;;;;5045731;28;20487;-90
2023/03/17 08:46:02;;;;;;;12.97;7.70;;;9.20;53.00;;;;;;5020801;28;20904;-89
2023/03/17 08:48:29;;;;;;;8.33;6.40;;;9.40;53.10;;;;;;5051529;28;20459;-89
2023/03/17 08:50:57;;;;;;;12.47;5.47;;;9.60;52.50;;;;;;5036416;28;20984;-89
2023/03/17 08:53:24;;;;;;;7.27;5.17;;;9.70;51.90;;;;;;5038236;28;20433;-91
2023/03/17 08:55:54;;;;;;;5.63;4.70;;;9.60;51.30;;;;;;5043369;28;20995;-90
2023/03/17 08:58:21;;;;;;;5.20;4.27;;;9.70;51.30;;;;;;5024786;28;20445;-89
2023/03/17 09:00:48;;;;;;;5.50;4.33;;;9.90;51.50;;;;;;5033554;28;21032;-89
2023/03/17 09:03:16;;;;;;;6.00;4.90;;;9.90;51.60;;;;;;5038822;28;20784;-87
2023/03/17 09:05:43;;;;;;;5.37;4.50;;;10.00;50.30;;;;;;5066618;28;20468;-88
2023/03/17 09:08:11;;;;;;;6.23;4.73;;;10.20;49.70;;;;;;5052553;28;20451;-87
2023/03/17 09:10:38;;;;;;;6.70;4.67;;;10.30;50.00;;;;;;5025804;28;20444;-87
2023/03/17 09:13:07;;;;;;;12.07;5.30;;;10.40;50.40;;;;;;5054848;28;20463;-89
2023/03/17 09:15:35;;;;;;;6.60;4.80;;;10.50;49.50;;;;;;5032962;28;21029;-87
2023/03/17 09:18:03;;;;;;;6.70;5.10;;;10.30;50.30;;;;;;5022714;28;21061;-89
2023/03/17 09:20:30;;;;;;;5.20;4.70;;;10.50;50.00;;;;;;5041798;28;20708;-89
2023/03/17 09:22:57;;;;;;;6.10;4.63;;;10.80;50.40;;;;;;5041735;28;20668;-87
2023/03/17 09:25:24;;;;;;;6.33;4.80;;;11.00;50.10;;;;;;5033020;28;20483;-89
2023/03/17 09:27:51;;;;;;;6.40;4.90;;;11.10;48.80;;;;;;5052014;28;20441;-89
2023/03/17 09:30:19;;;;;;;5.80;4.50;;;11.20;49.00;;;;;;5035536;28;20456;-89
2023/03/17 09:32:47;;;;;;;7.97;4.97;;;11.30;49.20;;;;;;5040883;28;20435;-88
2023/03/17 09:35:14;;;;;;;5.33;4.60;;;11.30;48.60;;;;;;5026313;28;20467;-89
2023/03/17 09:37:41;;;;;;;6.73;5.20;;;11.40;48.90;;;;;;5041976;28;20445;-89
2023/03/17 09:40:15;;;;;;;5.80;4.20;;;11.50;48.50;;;;;;5025846;28;20540;-88
2023/03/17 09:42:53;;;;;;;6.30;4.37;;;11.80;48.70;;;;;;5042062;28;20445;-88
2023/03/17 09:45:31;;;;;;;6.87;4.93;;;12.00;48.60;;;;;;5024313;28;20490;-86
2023/03/17 09:48:18;;;;;;;5.90;4.30;;;12.30;47.80;;;;;;5025573;28;20464;-86
2023/03/17 09:50:49;;;;;;;5.63;4.17;;;12.50;47.20;;;;;;5050127;28;20506;-86
2023/03/17 09:53:19;;;;;;;5.07;4.10;;;12.60;47.20;;;;;;5048944;28;20456;-85
2023/03/17 09:55:50;;;;;;;6.20;4.40;;;13.00;47.50;;;;;;5032651;28;20893;-88
2023/03/17 09:58:20;;;;;;;7.23;6.13;;;13.30;46.40;;;;;;5032203;28;20516;-86
2023/03/17 10:00:49;;;;;;;4.73;4.30;;;13.60;46.60;;;;;;5070320;28;20499;-86
2023/03/17 10:03:16;;;;;;;6.10;4.30;;;13.90;45.40;;;;;;5043735;28;20483;-87
2023/03/17 10:05:43;;;;;;;8.17;4.60;;;13.80;45.00;;;;;;5027419;28;20513;-86
2023/03/17 10:08:16;;;;;;;7.40;4.40;;;13.40;45.30;;;;;;5036221;28;20448;-87
2023/03/17 10:10:47;;;;;;;9.03;4.20;;;13.50;46.00;;;;;;5068609;28;20462;-85
2023/03/17 10:13:25;;;;;;;4.80;4.20;;;13.60;45.50;;;;;;5052510;28;20508;-87
2023/03/17 10:16:02;;;;;;;6.30;4.20;;;13.60;45.80;;;;;;5028642;28;20525;-86
2023/03/17 10:18:38;;;;;;;6.40;4.90;;;13.80;45.60;;;;;;5041149;28;20718;-87
2023/03/17 10:21:08;;;;;;;5.40;4.00;;;14.00;45.60;;;;;;5035984;28;20961;-88
2023/03/17 10:23:36;;;;;;;4.30;3.70;;;14.20;45.70;;;;;;5053172;28;20514;-86
2023/03/17 10:26:07;;;;;;;5.10;4.43;;;14.20;44.70;;;;;;5036108;28;20456;-86
2023/03/17 10:28:37;;;;;;;8.10;5.60;;;14.20;45.20;;;;;;5068403;28;20456;-87
2023/03/17 10:31:15;;;;;;;9.10;5.87;;;14.50;44.50;;;;;;5054752;28;20460;-87
2023/03/17 10:33:43;;;;;;;9.83;6.50;;;14.70;44.70;;;;;;5023698;28;20461;-86
2023/03/17 10:36:14;;;;;;;6.60;4.90;;;14.80;44.30;;;;;;5023949;28;20436;-86
2023/03/17 10:38:42;;;;;;;8.47;4.40;;;14.90;44.50;;;;;;5051780;28;20498;-87
2023/03/17 10:41:14;;;;;;;4.53;4.00;;;14.90;44.10;;;;;;5029472;28;20907;-85
2023/03/17 10:43:45;;;;;;;5.00;4.30;;;14.50;44.20;;;;;;5025733;28;20531;-87
2023/03/17 10:46:23;;;;;;;6.03;3.83;;;14.70;44.80;;;;;;5055925;28;20459;-87
2023/03/17 10:48:52;;;;;;;5.60;3.97;;;14.80;44.50;;;;;;5049181;28;20437;-87
2023/03/17 10:51:31;;;;;;;5.93;4.40;;;15.10;44.40;;;;;;5030526;28;20456;-85
2023/03/17 10:54:02;;;;;;;7.97;3.93;;;15.00;44.60;;;;;;5039264;28;20478;-86
2023/03/17 10:56:34;;;;;;;4.80;4.40;;;15.20;44.70;;;;;;5044442;28;20896;-86
2023/03/17 10:59:07;;;;;;;4.47;4.07;;;15.40;44.00;;;;;;5062846;28;20949;-86
2023/03/17 11:01:41;;;;;;;5.47;4.40;;;15.90;43.90;;;;;;5071275;28;20445;-87
2023/03/17 11:04:36;;;;;;;5.70;3.80;;;16.00;43.20;;;;;;5030230;28;20496;-89
2023/03/17 11:07:09;;;;;;;5.23;4.70;;;16.40;43.10;;;;;;5006526;28;20478;-87
2023/03/17 11:09:37;;;;;;;4.70;3.20;;;16.70;42.40;;;;;;5050517;28;20455;-87
2023/03/17 11:12:07;;;;;;;4.33;3.63;;;16.60;42.20;;;;;;5034767;28;20444;-87
2023/03/17 11:14:35;;;;;;;9.10;4.53;;;16.80;42.30;;;;;;5075968;28;20809;-87
2023/03/17 11:17:16;;;;;;;4.63;4.03;;;17.10;41.60;;;;;;5057234;28;20443;-87
2023/03/17 11:19:51;;;;;;;4.93;4.10;;;17.20;41.10;;;;;;5067603;28;20538;-88
2023/03/17 11:22:27;;;;;;;4.17;3.77;;;17.30;40.60;;;;;;5050334;28;20464;-86
2023/03/17 11:25:06;;;;;;;3.90;3.40;;;17.30;41.80;;;;;;5070425;28;20464;-86
2023/03/17 11:27:35;;;;;;;6.57;4.77;;;17.70;41.10;;;;;;5039297;28;20573;-85
2023/03/17 11:30:16;;;;;;;5.63;4.20;;;18.00;40.80;;;;;;5082761;28;20449;-86
2023/03/17 11:32:51;;;;;;;4.77;3.57;;;18.30;39.50;;;;;;5060581;28;20452;-88
2023/03/17 11:35:37;;;;;;;4.40;3.53;;;17.90;40.90;;;;;;5042684;28;20491;-85
2023/03/17 11:38:18;;;;;;;5.00;3.70;;;18.10;40.90;;;;;;5071321;28;20548;-87
2023/03/17 11:40:59;;;;;;;6.43;3.90;;;18.30;41.20;;;;;;5033602;28;20451;-86
2023/03/17 11:43:34;;;;;;;4.33;3.93;;;18.50;39.70;;;;;;5037310;28;20451;-89
2023/03/17 11:46:09;;;;;;;4.87;4.17;;;18.60;39.50;;;;;;5064112;28;20695;-85
2023/03/17 11:48:47;;;;;;;5.20;3.70;;;18.80;38.80;;;;;;5051316;28;20443;-85
2023/03/17 11:51:26;;;;;;;7.10;4.27;;;18.90;39.40;;;;;;5038799;28;20513;-85
2023/03/17 11:54:05;;;;;;;4.40;4.00;;;19.20;39.60;;;;;;5039265;28;20844;-86
2023/03/17 11:56:40;;;;;;;3.57;3.10;;;19.20;37.30;;;;;;5039181;28;22249;-86
2023/03/17 11:59:16;;;;;;;4.30;3.73;;;19.30;38.10;;;;;;5057794;28;20456;-86
2023/03/17 12:01:50;;;;;;;3.50;3.17;;;19.10;37.00;;;;;;5068230;28;20685;-85
2023/03/17 12:04:25;;;;;;;5.93;3.63;;;18.90;37.20;;;;;;5040073;28;20460;-87
2023/03/17 12:06:58;;;;;;;6.97;3.77;;;18.70;37.20;;;;;;5049340;28;20447;-87
2023/03/17 12:09:30;;;;;;;4.63;3.53;;;19.00;38.00;;;;;;5082176;28;20512;-88
2023/03/17 12:11:59;;;;;;;4.40;3.50;;;19.20;38.10;;;;;;5048720;28;20538;-86
2023/03/17 12:14:29;;;;;;;4.60;3.37;;;18.70;37.60;;;;;;5043096;28;20476;-86
2023/03/17 12:17:04;;;;;;;9.63;4.03;;;19.00;38.50;;;;;;5031307;28;20874;-86
2023/03/17 12:19:42;;;;;;;3.70;3.40;;;19.30;37.30;;;;;;5038919;28;20452;-86
2023/03/17 12:22:18;;;;;;;5.27;4.80;;;19.60;37.90;;;;;;5049694;28;20436;-87
2023/03/17 12:24:52;;;;;;;11.67;10.23;;;19.90;37.90;;;;;;5054493;28;20478;-86
2023/03/17 12:27:24;;;;;;;5.20;4.70;;;20.10;37.20;;;;;;5058560;28;20872;-85
2023/03/17 12:29:57;;;;;;;4.40;4.00;;;20.00;37.90;;;;;;5059024;28;20837;-86
2023/03/17 12:32:29;;;;;;;4.63;3.80;;;19.90;37.80;;;;;;5045593;28;20976;-86
2023/03/17 12:34:58;;;;;;;5.67;3.80;;;20.00;37.80;;;;;;5038999;28;20468;-87
2023/03/17 12:37:27;;;;;;;4.50;4.10;;;19.60;36.80;;;;;;5060247;28;20472;-86
2023/03/17 12:39:59;;;;;;;4.63;4.17;;;19.60;37.70;;;;;;5062146;28;20447;-87
2023/03/17 12:42:38;;;;;;;8.03;5.70;;;19.60;37.90;;;;;;5063006;28;20547;-87
2023/03/17 12:45:27;;;;;;;5.17;3.70;;;19.40;38.60;;;;;;5038586;28;20472;-85
2023/03/17 12:48:06;;;;;;;8.30;5.77;;;19.40;38.70;;;;;;5034328;28;20454;-86
2023/03/17 12:51:05;;;;;;;5.70;4.30;;;19.70;39.30;;;;;;5048956;28;20505;-86
2023/03/17 12:53:34;;;;;;;9.20;5.23;;;19.80;38.90;;;;;;5031220;28;20505;-86
2023/03/17 12:56:10;;;;;;;3.87;3.40;;;19.70;38.30;;;;;;5050251;28;20450;-86
2023/03/17 12:58:40;;;;;;;8.93;4.93;;;19.80;38.20;;;;;;5072571;28;20447;-86
2023/03/17 13:01:16;;;;;;;4.50;4.10;;;19.80;37.60;;;;;;5030584;28;20862;-87
2023/03/17 13:03:57;;;;;;;5.00;4.07;;;19.90;38.00;;;;;;5042665;28;20440;-87